sensor_id;sensor_type;location;lat;lon;timestamp;P1;durP1;ratioP1;P2;durP2;ratioP2
51248;SDS011;39642;47.556;18.728;2023-03-21T00:01:11;10.38;;;3.97;;
51248;SDS011;39642;47.556;18.728;2023-03-21T00:03:38;10.70;;;3.62;;
51248;SDS011;39642;47.556;18.728;2023-03-21T00:06:04;10.32;;;3.80;;
51248;SDS011;39642;47.556;18.728;2023-03-21T00:08:32;9.85;;;3.83;;
51248;SDS011;39642;47.556;18.728;2023-03-21T00:10:58;9.27;;;3.58;;
51248;SDS011;39642;47.556;18.728;2023-03-21T00:13:27;10.65;;;3.37;;
51248;SDS011;39642;47.556;18.728;2023-03-21T00:15:58;9.52;;;3.53;;
51248;SDS011;39642;47.556;18.728;2023-03-21T00:18:28;9.48;;;3.80;;
51248;SDS011;39642;47.556;18.728;2023-03-21T00:20:58;10.07;;;3.50;;
51248;SDS011;39642;47.556;18.728;2023-03-21T00:23:26;10.70;;;3.28;;
51248;SDS011;39642;47.556;18.728;2023-03-21T00:25:53;10.32;;;3.60;;
51248;SDS011;39642;47.556;18.728;2023-03-21T00:28:19;9.65;;;3.58;;
51248;SDS011;39642;47.556;18.728;2023-03-21T00:30:46;9.52;;;3.50;;
51248;SDS011;39642;47.556;18.728;2023-03-21T00:33:12;9.77;;;3.95;;
51248;SDS011;39642;47.556;18.728;2023-03-21T00:35:38;9.32;;;3.50;;
51248;SDS011;39642;47.556;18.728;2023-03-21T00:38:07;10.77;;;3.70;;
51248;SDS011;39642;47.556;18.728;2023-03-21T00:40:33;9.48;;;3.37;;
51248;SDS011;39642;47.556;18.728;2023-03-21T00:42:59;9.75;;;3.60;;
51248;SDS011;39642;47.556;18.728;2023-03-21T00:45:25;9.43;;;3.65;;
51248;SDS011;39642;47.556;18.728;2023-03-21T00:47:51;10.25;;;3.45;;
51248;SDS011;39642;47.556;18.728;2023-03-21T00:50:17;9.00;;;3.20;;
51248;SDS011;39642;47.556;18.728;2023-03-21T00:52:43;8.85;;;3.10;;
51248;SDS011;39642;47.556;18.728;2023-03-21T00:55:13;9.98;;;3.55;;
51248;SDS011;39642;47.556;18.728;2023-03-21T00:57:40;9.60;;;3.35;;
51248;SDS011;39642;47.556;18.728;2023-03-21T01:00:08;9.25;;;3.22;;
51248;SDS011;39642;47.556;18.728;2023-03-21T01:02:35;8.88;;;3.28;;
51248;SDS011;39642;47.556;18.728;2023-03-21T01:05:03;9.60;;;3.40;;
51248;SDS011;39642;47.556;18.728;2023-03-21T01:07:29;8.82;;;3.05;;
51248;SDS011;39642;47.556;18.728;2023-03-21T01:09:55;8.48;;;3.10;;
51248;SDS011;39642;47.556;18.728;2023-03-21T01:12:21;9.27;;;3.30;;
51248;SDS011;39642;47.556;18.728;2023-03-21T01:14:47;10.05;;;3.45;;
51248;SDS011;39642;47.556;18.728;2023-03-21T01:17:13;10.25;;;3.55;;
51248;SDS011;39642;47.556;18.728;2023-03-21T01:19:39;9.57;;;3.00;;
51248;SDS011;39642;47.556;18.728;2023-03-21T01:22:05;9.30;;;3.10;;
51248;SDS011;39642;47.556;18.728;2023-03-21T01:24:30;8.70;;;3.00;;
51248;SDS011;39642;47.556;18.728;2023-03-21T01:26:57;8.63;;;3.20;;
51248;SDS011;39642;47.556;18.728;2023-03-21T01:29:23;9.98;;;3.22;;
51248;SDS011;39642;47.556;18.728;2023-03-21T01:31:48;10.55;;;3.35;;
51248;SDS011;39642;47.556;18.728;2023-03-21T01:34:14;9.45;;;3.30;;
51248;SDS011;39642;47.556;18.728;2023-03-21T01:36:40;8.70;;;3.17;;
51248;SDS011;39642;47.556;18.728;2023-03-21T01:39:06;8.35;;;2.97;;
51248;SDS011;39642;47.556;18.728;2023-03-21T01:41:34;9.68;;;3.12;;
51248;SDS011;39642;47.556;18.728;2023-03-21T01:44:02;8.77;;;3.10;;
51248;SDS011;39642;47.556;18.728;2023-03-21T01:51:50;8.15;;;2.90;;
51248;SDS011;39642;47.556;18.728;2023-03-21T01:54:20;8.25;;;2.92;;
51248;SDS011;39642;47.556;18.728;2023-03-21T01:56:52;8.70;;;3.00;;
51248;SDS011;39642;47.556;18.728;2023-03-21T01:59:23;8.20;;;2.85;;
51248;SDS011;39642;47.556;18.728;2023-03-21T02:01:53;7.80;;;2.50;;
51248;SDS011;39642;47.556;18.728;2023-03-21T02:04:21;10.45;;;3.10;;
51248;SDS011;39642;47.556;18.728;2023-03-21T02:06:59;9.15;;;2.67;;
51248;SDS011;39642;47.556;18.728;2023-03-21T02:09:29;9.23;;;3.17;;
51248;SDS011;39642;47.556;18.728;2023-03-21T02:11:58;9.02;;;3.05;;
51248;SDS011;39642;47.556;18.728;2023-03-21T02:14:25;8.98;;;2.75;;
51248;SDS011;39642;47.556;18.728;2023-03-21T02:28:14;9.15;;;2.80;;
51248;SDS011;39642;47.556;18.728;2023-03-21T02:35:57;8.27;;;2.70;;
51248;SDS011;39642;47.556;18.728;2023-03-21T02:38:47;8.77;;;2.75;;
51248;SDS011;39642;47.556;18.728;2023-03-21T02:44:45;8.57;;;2.75;;
51248;SDS011;39642;47.556;18.728;2023-03-21T02:47:18;8.05;;;2.80;;
51248;SDS011;39642;47.556;18.728;2023-03-21T02:49:55;7.55;;;2.50;;
51248;SDS011;39642;47.556;18.728;2023-03-21T02:52:28;8.60;;;2.80;;
51248;SDS011;39642;47.556;18.728;2023-03-21T02:54:58;8.50;;;2.83;;
51248;SDS011;39642;47.556;18.728;2023-03-21T02:57:29;8.35;;;2.75;;
51248;SDS011;39642;47.556;18.728;2023-03-21T02:59:56;7.87;;;2.75;;
51248;SDS011;39642;47.556;18.728;2023-03-21T03:02:25;8.85;;;2.65;;
51248;SDS011;39642;47.556;18.728;2023-03-21T03:04:52;7.12;;;2.60;;
51248;SDS011;39642;47.556;18.728;2023-03-21T03:07:31;9.05;;;3.08;;
51248;SDS011;39642;47.556;18.728;2023-03-21T03:10:10;8.30;;;2.60;;
51248;SDS011;39642;47.556;18.728;2023-03-21T03:15:52;8.40;;;2.70;;
51248;SDS011;39642;47.556;18.728;2023-03-21T03:18:52;8.27;;;2.67;;
51248;SDS011;39642;47.556;18.728;2023-03-21T03:23:52;7.37;;;2.60;;
51248;SDS011;39642;47.556;18.728;2023-03-21T03:26:24;8.23;;;2.60;;
51248;SDS011;39642;47.556;18.728;2023-03-21T03:28:54;7.50;;;2.47;;
51248;SDS011;39642;47.556;18.728;2023-03-21T03:31:26;8.43;;;2.65;;
51248;SDS011;39642;47.556;18.728;2023-03-21T03:33:58;8.00;;;2.65;;
51248;SDS011;39642;47.556;18.728;2023-03-21T03:36:29;8.40;;;2.60;;
51248;SDS011;39642;47.556;18.728;2023-03-21T03:39:03;9.25;;;2.80;;
51248;SDS011;39642;47.556;18.728;2023-03-21T03:41:35;8.00;;;2.60;;
51248;SDS011;39642;47.556;18.728;2023-03-21T03:44:06;8.57;;;2.60;;
51248;SDS011;39642;47.556;18.728;2023-03-21T03:49:23;8.07;;;2.70;;
51248;SDS011;39642;47.556;18.728;2023-03-21T03:51:54;8.57;;;2.50;;
51248;SDS011;39642;47.556;18.728;2023-03-21T03:54:37;7.80;;;2.50;;
51248;SDS011;39642;47.556;18.728;2023-03-21T03:57:06;7.82;;;2.22;;
51248;SDS011;39642;47.556;18.728;2023-03-21T03:59:34;7.90;;;2.53;;
51248;SDS011;39642;47.556;18.728;2023-03-21T04:02:02;7.15;;;2.30;;
51248;SDS011;39642;47.556;18.728;2023-03-21T04:04:28;9.23;;;2.78;;
51248;SDS011;39642;47.556;18.728;2023-03-21T04:06:56;7.47;;;2.40;;
51248;SDS011;39642;47.556;18.728;2023-03-21T04:09:23;7.62;;;2.40;;
51248;SDS011;39642;47.556;18.728;2023-03-21T04:11:49;8.00;;;2.60;;
51248;SDS011;39642;47.556;18.728;2023-03-21T04:14:15;6.40;;;2.28;;
51248;SDS011;39642;47.556;18.728;2023-03-21T04:16:41;7.60;;;2.37;;
51248;SDS011;39642;47.556;18.728;2023-03-21T04:19:07;9.18;;;2.72;;
51248;SDS011;39642;47.556;18.728;2023-03-21T04:21:33;8.20;;;2.55;;
51248;SDS011;39642;47.556;18.728;2023-03-21T04:23:59;7.90;;;2.60;;
51248;SDS011;39642;47.556;18.728;2023-03-21T04:26:25;7.62;;;2.40;;
51248;SDS011;39642;47.556;18.728;2023-03-21T04:28:57;7.68;;;2.47;;
51248;SDS011;39642;47.556;18.728;2023-03-21T04:31:31;8.23;;;2.47;;
51248;SDS011;39642;47.556;18.728;2023-03-21T04:33:59;7.10;;;2.22;;
51248;SDS011;39642;47.556;18.728;2023-03-21T04:36:27;8.00;;;2.50;;
51248;SDS011;39642;47.556;18.728;2023-03-21T04:39:03;8.73;;;2.90;;
51248;SDS011;39642;47.556;18.728;2023-03-21T04:41:30;7.32;;;2.45;;
51248;SDS011;39642;47.556;18.728;2023-03-21T04:43:56;7.95;;;2.45;;
51248;SDS011;39642;47.556;18.728;2023-03-21T04:46:22;7.47;;;2.30;;
51248;SDS011;39642;47.556;18.728;2023-03-21T04:48:48;7.85;;;2.40;;
51248;SDS011;39642;47.556;18.728;2023-03-21T04:51:14;8.10;;;2.30;;
51248;SDS011;39642;47.556;18.728;2023-03-21T04:53:41;8.25;;;2.50;;
51248;SDS011;39642;47.556;18.728;2023-03-21T04:56:10;7.97;;;2.30;;
51248;SDS011;39642;47.556;18.728;2023-03-21T04:58:36;7.45;;;2.45;;
51248;SDS011;39642;47.556;18.728;2023-03-21T05:01:05;8.60;;;2.78;;
51248;SDS011;39642;47.556;18.728;2023-03-21T05:03:32;8.32;;;2.75;;
51248;SDS011;39642;47.556;18.728;2023-03-21T05:05:59;8.05;;;2.40;;
51248;SDS011;39642;47.556;18.728;2023-03-21T05:08:26;7.87;;;2.45;;
51248;SDS011;39642;47.556;18.728;2023-03-21T05:10:52;8.30;;;2.60;;
51248;SDS011;39642;47.556;18.728;2023-03-21T05:13:18;8.00;;;2.53;;
51248;SDS011;39642;47.556;18.728;2023-03-21T05:15:45;7.50;;;2.28;;
51248;SDS011;39642;47.556;18.728;2023-03-21T05:18:11;8.30;;;2.53;;
51248;SDS011;39642;47.556;18.728;2023-03-21T05:20:38;9.82;;;2.80;;
51248;SDS011;39642;47.556;18.728;2023-03-21T05:23:10;8.48;;;2.75;;
51248;SDS011;39642;47.556;18.728;2023-03-21T05:25:37;8.70;;;2.62;;
51248;SDS011;39642;47.556;18.728;2023-03-21T05:28:04;8.10;;;2.70;;
51248;SDS011;39642;47.556;18.728;2023-03-21T05:30:31;8.50;;;2.50;;
51248;SDS011;39642;47.556;18.728;2023-03-21T05:32:58;9.52;;;2.70;;
51248;SDS011;39642;47.556;18.728;2023-03-21T05:35:24;9.00;;;2.70;;
51248;SDS011;39642;47.556;18.728;2023-03-21T05:37:51;10.23;;;2.80;;
51248;SDS011;39642;47.556;18.728;2023-03-21T05:40:18;9.02;;;2.83;;
51248;SDS011;39642;47.556;18.728;2023-03-21T05:42:45;9.65;;;2.45;;
51248;SDS011;39642;47.556;18.728;2023-03-21T05:45:11;9.63;;;2.70;;
51248;SDS011;39642;47.556;18.728;2023-03-21T05:47:38;9.57;;;2.72;;
51248;SDS011;39642;47.556;18.728;2023-03-21T05:50:04;9.15;;;3.28;;
51248;SDS011;39642;47.556;18.728;2023-03-21T05:52:31;10.52;;;3.47;;
51248;SDS011;39642;47.556;18.728;2023-03-21T05:54:57;10.43;;;3.55;;
51248;SDS011;39642;47.556;18.728;2023-03-21T05:57:26;12.75;;;4.43;;
51248;SDS011;39642;47.556;18.728;2023-03-21T05:59:53;15.18;;;5.50;;
51248;SDS011;39642;47.556;18.728;2023-03-21T06:02:19;14.32;;;5.62;;
51248;SDS011;39642;47.556;18.728;2023-03-21T06:04:45;12.90;;;5.18;;
51248;SDS011;39642;47.556;18.728;2023-03-21T06:07:11;16.25;;;6.97;;
51248;SDS011;39642;47.556;18.728;2023-03-21T06:09:36;23.00;;;8.25;;
51248;SDS011;39642;47.556;18.728;2023-03-21T06:12:02;22.67;;;10.38;;
51248;SDS011;39642;47.556;18.728;2023-03-21T06:14:28;24.60;;;10.35;;
51248;SDS011;39642;47.556;18.728;2023-03-21T06:16:54;29.80;;;15.93;;
51248;SDS011;39642;47.556;18.728;2023-03-21T06:19:20;37.53;;;15.73;;
51248;SDS011;39642;47.556;18.728;2023-03-21T06:21:47;40.80;;;17.95;;
51248;SDS011;39642;47.556;18.728;2023-03-21T06:24:13;39.78;;;16.05;;
51248;SDS011;39642;47.556;18.728;2023-03-21T06:26:39;40.60;;;12.52;;
51248;SDS011;39642;47.556;18.728;2023-03-21T06:29:07;48.50;;;12.52;;
51248;SDS011;39642;47.556;18.728;2023-03-21T06:31:33;29.87;;;9.82;;
51248;SDS011;39642;47.556;18.728;2023-03-21T06:33:59;29.37;;;9.43;;
51248;SDS011;39642;47.556;18.728;2023-03-21T06:36:25;25.98;;;8.50;;
51248;SDS011;39642;47.556;18.728;2023-03-21T06:38:51;22.77;;;7.43;;
51248;SDS011;39642;47.556;18.728;2023-03-21T06:41:16;17.27;;;6.28;;
51248;SDS011;39642;47.556;18.728;2023-03-21T06:43:43;25.98;;;6.00;;
51248;SDS011;39642;47.556;18.728;2023-03-21T06:46:09;14.95;;;5.60;;
51248;SDS011;39642;47.556;18.728;2023-03-21T06:48:35;16.48;;;4.45;;
51248;SDS011;39642;47.556;18.728;2023-03-21T06:51:03;16.50;;;4.72;;
51248;SDS011;39642;47.556;18.728;2023-03-21T06:53:29;15.90;;;4.62;;
51248;SDS011;39642;47.556;18.728;2023-03-21T06:55:57;13.32;;;4.18;;
51248;SDS011;39642;47.556;18.728;2023-03-21T06:58:23;14.57;;;4.25;;
51248;SDS011;39642;47.556;18.728;2023-03-21T07:00:49;14.45;;;4.00;;
51248;SDS011;39642;47.556;18.728;2023-03-21T07:03:15;13.40;;;4.28;;
51248;SDS011;39642;47.556;18.728;2023-03-21T07:05:41;16.50;;;4.57;;
51248;SDS011;39642;47.556;18.728;2023-03-21T07:08:07;17.80;;;3.83;;
51248;SDS011;39642;47.556;18.728;2023-03-21T07:10:39;14.15;;;4.03;;
51248;SDS011;39642;47.556;18.728;2023-03-21T07:13:09;11.98;;;3.62;;
51248;SDS011;39642;47.556;18.728;2023-03-21T07:15:35;11.50;;;3.78;;
51248;SDS011;39642;47.556;18.728;2023-03-21T07:18:03;13.32;;;3.33;;
51248;SDS011;39642;47.556;18.728;2023-03-21T07:20:30;10.80;;;3.20;;
51248;SDS011;39642;47.556;18.728;2023-03-21T07:22:56;14.65;;;4.10;;
51248;SDS011;39642;47.556;18.728;2023-03-21T07:25:23;11.57;;;4.00;;
51248;SDS011;39642;47.556;18.728;2023-03-21T07:27:49;12.80;;;4.07;;
51248;SDS011;39642;47.556;18.728;2023-03-21T07:30:15;15.73;;;4.28;;
51248;SDS011;39642;47.556;18.728;2023-03-21T07:32:41;13.00;;;3.95;;
51248;SDS011;39642;47.556;18.728;2023-03-21T07:35:09;11.38;;;3.72;;
51248;SDS011;39642;47.556;18.728;2023-03-21T07:37:37;11.48;;;3.72;;
51248;SDS011;39642;47.556;18.728;2023-03-21T07:40:03;14.00;;;3.12;;
51248;SDS011;39642;47.556;18.728;2023-03-21T07:42:35;11.32;;;3.60;;
51248;SDS011;39642;47.556;18.728;2023-03-21T07:45:02;10.95;;;3.30;;
51248;SDS011;39642;47.556;18.728;2023-03-21T07:47:30;11.10;;;3.22;;
51248;SDS011;39642;47.556;18.728;2023-03-21T07:49:56;13.15;;;3.42;;
51248;SDS011;39642;47.556;18.728;2023-03-21T07:52:23;15.20;;;4.10;;
51248;SDS011;39642;47.556;18.728;2023-03-21T07:54:49;16.80;;;4.03;;
51248;SDS011;39642;47.556;18.728;2023-03-21T07:57:15;19.20;;;3.55;;
51248;SDS011;39642;47.556;18.728;2023-03-21T07:59:42;20.08;;;3.72;;
51248;SDS011;39642;47.556;18.728;2023-03-21T08:02:10;16.70;;;3.78;;
51248;SDS011;39642;47.556;18.728;2023-03-21T08:04:39;19.58;;;3.80;;
51248;SDS011;39642;47.556;18.728;2023-03-21T08:07:05;11.95;;;2.97;;
51248;SDS011;39642;47.556;18.728;2023-03-21T08:09:31;18.33;;;4.05;;
51248;SDS011;39642;47.556;18.728;2023-03-21T08:11:57;15.25;;;3.90;;
51248;SDS011;39642;47.556;18.728;2023-03-21T08:14:22;22.65;;;4.07;;
51248;SDS011;39642;47.556;18.728;2023-03-21T08:16:48;25.73;;;3.95;;
51248;SDS011;39642;47.556;18.728;2023-03-21T08:19:14;19.35;;;3.12;;
51248;SDS011;39642;47.556;18.728;2023-03-21T08:21:40;16.25;;;3.40;;
51248;SDS011;39642;47.556;18.728;2023-03-21T08:24:07;14.23;;;3.45;;
51248;SDS011;39642;47.556;18.728;2023-03-21T08:26:32;13.35;;;3.45;;
51248;SDS011;39642;47.556;18.728;2023-03-21T08:28:59;22.23;;;3.55;;
51248;SDS011;39642;47.556;18.728;2023-03-21T08:31:25;23.30;;;3.90;;
51248;SDS011;39642;47.556;18.728;2023-03-21T08:33:51;13.57;;;3.55;;
51248;SDS011;39642;47.556;18.728;2023-03-21T08:36:19;17.83;;;4.00;;
51248;SDS011;39642;47.556;18.728;2023-03-21T08:38:46;17.10;;;3.78;;
51248;SDS011;39642;47.556;18.728;2023-03-21T08:41:16;23.55;;;7.32;;
51248;SDS011;39642;47.556;18.728;2023-03-21T08:43:43;26.48;;;8.95;;
51248;SDS011;39642;47.556;18.728;2023-03-21T08:46:09;31.33;;;7.37;;
51248;SDS011;39642;47.556;18.728;2023-03-21T08:48:35;20.45;;;6.72;;
51248;SDS011;39642;47.556;18.728;2023-03-21T08:51:03;23.75;;;5.95;;
51248;SDS011;39642;47.556;18.728;2023-03-21T08:53:30;18.58;;;5.82;;
51248;SDS011;39642;47.556;18.728;2023-03-21T08:55:57;21.80;;;6.32;;
51248;SDS011;39642;47.556;18.728;2023-03-21T08:58:23;22.08;;;6.25;;
51248;SDS011;39642;47.556;18.728;2023-03-21T09:00:49;26.05;;;6.85;;
51248;SDS011;39642;47.556;18.728;2023-03-21T09:03:15;23.77;;;5.90;;
51248;SDS011;39642;47.556;18.728;2023-03-21T09:05:41;23.70;;;6.10;;
51248;SDS011;39642;47.556;18.728;2023-03-21T09:08:10;13.68;;;4.93;;
51248;SDS011;39642;47.556;18.728;2023-03-21T09:10:37;16.50;;;4.70;;
51248;SDS011;39642;47.556;18.728;2023-03-21T09:13:03;21.12;;;5.90;;
51248;SDS011;39642;47.556;18.728;2023-03-21T09:15:29;13.90;;;4.50;;
51248;SDS011;39642;47.556;18.728;2023-03-21T09:17:57;19.35;;;4.97;;
51248;SDS011;39642;47.556;18.728;2023-03-21T09:20:37;18.98;;;5.55;;
51248;SDS011;39642;47.556;18.728;2023-03-21T09:23:04;17.50;;;4.80;;
51248;SDS011;39642;47.556;18.728;2023-03-21T09:25:31;16.67;;;5.25;;
51248;SDS011;39642;47.556;18.728;2023-03-21T09:27:57;15.05;;;4.78;;
51248;SDS011;39642;47.556;18.728;2023-03-21T09:30:24;17.25;;;5.03;;
51248;SDS011;39642;47.556;18.728;2023-03-21T09:32:50;22.30;;;5.28;;
51248;SDS011;39642;47.556;18.728;2023-03-21T09:35:18;20.33;;;5.22;;
51248;SDS011;39642;47.556;18.728;2023-03-21T09:37:45;19.15;;;5.28;;
51248;SDS011;39642;47.556;18.728;2023-03-21T09:40:17;13.30;;;4.57;;
51248;SDS011;39642;47.556;18.728;2023-03-21T09:42:49;18.37;;;4.75;;
51248;SDS011;39642;47.556;18.728;2023-03-21T09:45:30;27.08;;;5.10;;
51248;SDS011;39642;47.556;18.728;2023-03-21T09:48:03;32.35;;;5.45;;
51248;SDS011;39642;47.556;18.728;2023-03-21T09:50:32;20.25;;;4.60;;
51248;SDS011;39642;47.556;18.728;2023-03-21T09:53:02;27.55;;;4.80;;
51248;SDS011;39642;47.556;18.728;2023-03-21T09:55:32;26.17;;;4.95;;
51248;SDS011;39642;47.556;18.728;2023-03-21T10:00:46;26.20;;;5.40;;
51248;SDS011;39642;47.556;18.728;2023-03-21T10:03:26;35.47;;;5.13;;
51248;SDS011;39642;47.556;18.728;2023-03-21T10:05:56;24.02;;;5.47;;
51248;SDS011;39642;47.556;18.728;2023-03-21T10:08:29;23.92;;;5.00;;
51248;SDS011;39642;47.556;18.728;2023-03-21T10:10:59;22.55;;;4.40;;
51248;SDS011;39642;47.556;18.728;2023-03-21T10:13:34;20.55;;;4.07;;
51248;SDS011;39642;47.556;18.728;2023-03-21T10:16:14;22.25;;;4.25;;
51248;SDS011;39642;47.556;18.728;2023-03-21T10:18:44;22.98;;;4.22;;
51248;SDS011;39642;47.556;18.728;2023-03-21T10:21:18;18.83;;;4.07;;
51248;SDS011;39642;47.556;18.728;2023-03-21T10:23:50;15.40;;;3.50;;
51248;SDS011;39642;47.556;18.728;2023-03-21T10:26:18;17.50;;;3.78;;
51248;SDS011;39642;47.556;18.728;2023-03-21T10:28:47;17.92;;;3.90;;
51248;SDS011;39642;47.556;18.728;2023-03-21T10:31:15;25.85;;;3.92;;
51248;SDS011;39642;47.556;18.728;2023-03-21T10:33:45;12.77;;;3.35;;
51248;SDS011;39642;47.556;18.728;2023-03-21T10:36:14;13.75;;;3.10;;
51248;SDS011;39642;47.556;18.728;2023-03-21T10:38:45;11.95;;;2.80;;
51248;SDS011;39642;47.556;18.728;2023-03-21T10:41:14;22.33;;;3.90;;
51248;SDS011;39642;47.556;18.728;2023-03-21T10:43:41;21.35;;;4.07;;
51248;SDS011;39642;47.556;18.728;2023-03-21T10:46:11;21.30;;;4.30;;
51248;SDS011;39642;47.556;18.728;2023-03-21T10:48:41;19.00;;;3.60;;
51248;SDS011;39642;47.556;18.728;2023-03-21T10:51:13;16.15;;;3.37;;
51248;SDS011;39642;47.556;18.728;2023-03-21T10:53:50;23.25;;;3.78;;
51248;SDS011;39642;47.556;18.728;2023-03-21T10:56:18;17.50;;;3.47;;
51248;SDS011;39642;47.556;18.728;2023-03-21T10:58:51;24.05;;;4.07;;
51248;SDS011;39642;47.556;18.728;2023-03-21T11:01:26;17.05;;;3.45;;
51248;SDS011;39642;47.556;18.728;2023-03-21T11:03:56;20.65;;;3.85;;
51248;SDS011;39642;47.556;18.728;2023-03-21T11:06:27;20.33;;;3.35;;
51248;SDS011;39642;47.556;18.728;2023-03-21T11:09:00;18.27;;;3.30;;
51248;SDS011;39642;47.556;18.728;2023-03-21T11:11:37;15.95;;;2.97;;
51248;SDS011;39642;47.556;18.728;2023-03-21T11:14:06;13.60;;;3.20;;
51248;SDS011;39642;47.556;18.728;2023-03-21T11:16:49;10.23;;;2.97;;
51248;SDS011;39642;47.556;18.728;2023-03-21T11:19:17;23.90;;;3.37;;
51248;SDS011;39642;47.556;18.728;2023-03-21T11:21:50;15.98;;;3.00;;
51248;SDS011;39642;47.556;18.728;2023-03-21T11:24:16;21.12;;;3.30;;
51248;SDS011;39642;47.556;18.728;2023-03-21T11:26:44;16.45;;;3.00;;
51248;SDS011;39642;47.556;18.728;2023-03-21T11:31:58;10.52;;;2.70;;
51248;SDS011;39642;47.556;18.728;2023-03-21T11:34:32;14.07;;;3.03;;
51248;SDS011;39642;47.556;18.728;2023-03-21T11:37:04;20.02;;;3.70;;
51248;SDS011;39642;47.556;18.728;2023-03-21T11:39:35;21.58;;;3.17;;
51248;SDS011;39642;47.556;18.728;2023-03-21T11:42:05;30.20;;;3.50;;
51248;SDS011;39642;47.556;18.728;2023-03-21T11:44:51;22.60;;;3.50;;
51248;SDS011;39642;47.556;18.728;2023-03-21T11:47:24;24.67;;;4.07;;
51248;SDS011;39642;47.556;18.728;2023-03-21T11:49:50;32.65;;;5.40;;
51248;SDS011;39642;47.556;18.728;2023-03-21T11:52:22;35.35;;;3.85;;
51248;SDS011;39642;47.556;18.728;2023-03-21T12:00:36;30.25;;;4.60;;
51248;SDS011;39642;47.556;18.728;2023-03-21T12:03:33;28.75;;;3.95;;
51248;SDS011;39642;47.556;18.728;2023-03-21T12:06:16;25.25;;;4.07;;
51248;SDS011;39642;47.556;18.728;2023-03-21T12:11:36;24.10;;;3.58;;
51248;SDS011;39642;47.556;18.728;2023-03-21T12:14:11;20.60;;;4.05;;
51248;SDS011;39642;47.556;18.728;2023-03-21T12:22:51;13.40;;;3.12;;
51248;SDS011;39642;47.556;18.728;2023-03-21T12:25:31;26.60;;;3.65;;
51248;SDS011;39642;47.556;18.728;2023-03-21T12:39:20;29.80;;;3.87;;
51248;SDS011;39642;47.556;18.728;2023-03-21T12:44:25;26.42;;;3.55;;
51248;SDS011;39642;47.556;18.728;2023-03-21T12:47:05;25.27;;;3.62;;
51248;SDS011;39642;47.556;18.728;2023-03-21T12:49:40;18.92;;;3.95;;
51248;SDS011;39642;47.556;18.728;2023-03-21T12:52:17;30.42;;;4.00;;
51248;SDS011;39642;47.556;18.728;2023-03-21T12:54:49;34.15;;;4.68;;
51248;SDS011;39642;47.556;18.728;2023-03-21T12:57:21;34.22;;;5.30;;
51248;SDS011;39642;47.556;18.728;2023-03-21T13:05:27;26.60;;;3.67;;
51248;SDS011;39642;47.556;18.728;2023-03-21T13:08:01;21.45;;;3.85;;
51248;SDS011;39642;47.556;18.728;2023-03-21T13:10:28;30.50;;;3.75;;
51248;SDS011;39642;47.556;18.728;2023-03-21T13:13:11;28.38;;;4.15;;
51248;SDS011;39642;47.556;18.728;2023-03-21T13:21:42;22.75;;;4.43;;
51248;SDS011;39642;47.556;18.728;2023-03-21T13:26:46;18.05;;;3.70;;
51248;SDS011;39642;47.556;18.728;2023-03-21T13:31:49;31.12;;;4.00;;
51248;SDS011;39642;47.556;18.728;2023-03-21T13:34:19;26.33;;;3.22;;
51248;SDS011;39642;47.556;18.728;2023-03-21T13:36:47;21.17;;;2.97;;
51248;SDS011;39642;47.556;18.728;2023-03-21T13:39:18;27.17;;;4.03;;
51248;SDS011;39642;47.556;18.728;2023-03-21T13:41:48;23.25;;;2.97;;
51248;SDS011;39642;47.556;18.728;2023-03-21T13:44:23;18.90;;;3.17;;
51248;SDS011;39642;47.556;18.728;2023-03-21T13:47:01;23.92;;;3.47;;
51248;SDS011;39642;47.556;18.728;2023-03-21T13:50:10;22.60;;;3.20;;
51248;SDS011;39642;47.556;18.728;2023-03-21T13:55:27;21.25;;;3.08;;
51248;SDS011;39642;47.556;18.728;2023-03-21T13:57:54;19.20;;;3.00;;
51248;SDS011;39642;47.556;18.728;2023-03-21T14:00:28;22.52;;;3.12;;
51248;SDS011;39642;47.556;18.728;2023-03-21T14:02:57;19.52;;;3.08;;
51248;SDS011;39642;47.556;18.728;2023-03-21T14:05:30;21.37;;;3.10;;
51248;SDS011;39642;47.556;18.728;2023-03-21T14:08:00;13.32;;;2.90;;
51248;SDS011;39642;47.556;18.728;2023-03-21T14:10:34;18.52;;;3.30;;
51248;SDS011;39642;47.556;18.728;2023-03-21T14:13:06;20.90;;;2.90;;
51248;SDS011;39642;47.556;18.728;2023-03-21T14:15:41;18.90;;;3.12;;
51248;SDS011;39642;47.556;18.728;2023-03-21T14:20:40;17.00;;;3.00;;
51248;SDS011;39642;47.556;18.728;2023-03-21T14:23:07;22.90;;;3.10;;
51248;SDS011;39642;47.556;18.728;2023-03-21T14:25:39;22.73;;;3.00;;
51248;SDS011;39642;47.556;18.728;2023-03-21T14:28:07;17.85;;;2.92;;
51248;SDS011;39642;47.556;18.728;2023-03-21T14:30:41;17.55;;;2.97;;
51248;SDS011;39642;47.556;18.728;2023-03-21T14:33:17;17.92;;;2.65;;
51248;SDS011;39642;47.556;18.728;2023-03-21T14:35:47;19.85;;;2.62;;
51248;SDS011;39642;47.556;18.728;2023-03-21T14:38:21;17.17;;;3.15;;
51248;SDS011;39642;47.556;18.728;2023-03-21T14:40:49;15.32;;;2.90;;
51248;SDS011;39642;47.556;18.728;2023-03-21T14:43:19;14.50;;;2.35;;
51248;SDS011;39642;47.556;18.728;2023-03-21T14:45:48;16.48;;;2.40;;
51248;SDS011;39642;47.556;18.728;2023-03-21T14:48:20;13.60;;;3.03;;
51248;SDS011;39642;47.556;18.728;2023-03-21T14:50:56;10.13;;;2.30;;
51248;SDS011;39642;47.556;18.728;2023-03-21T14:53:27;10.10;;;2.60;;
51248;SDS011;39642;47.556;18.728;2023-03-21T14:55:59;11.88;;;2.70;;
51248;SDS011;39642;47.556;18.728;2023-03-21T14:58:26;13.15;;;2.58;;
51248;SDS011;39642;47.556;18.728;2023-03-21T15:00:55;11.32;;;2.65;;
51248;SDS011;39642;47.556;18.728;2023-03-21T15:03:26;13.30;;;2.40;;
51248;SDS011;39642;47.556;18.728;2023-03-21T15:05:53;13.18;;;2.67;;
51248;SDS011;39642;47.556;18.728;2023-03-21T15:08:21;13.75;;;2.58;;
51248;SDS011;39642;47.556;18.728;2023-03-21T15:11:00;9.65;;;2.60;;
51248;SDS011;39642;47.556;18.728;2023-03-21T15:13:32;10.10;;;2.67;;
51248;SDS011;39642;47.556;18.728;2023-03-21T15:16:17;8.15;;;2.33;;
51248;SDS011;39642;47.556;18.728;2023-03-21T15:18:44;14.70;;;2.58;;
51248;SDS011;39642;47.556;18.728;2023-03-21T15:21:16;11.77;;;2.83;;
51248;SDS011;39642;47.556;18.728;2023-03-21T15:23:49;23.62;;;4.18;;
51248;SDS011;39642;47.556;18.728;2023-03-21T15:26:18;18.30;;;3.50;;
51248;SDS011;39642;47.556;18.728;2023-03-21T15:28:49;12.13;;;2.90;;
51248;SDS011;39642;47.556;18.728;2023-03-21T15:31:20;12.55;;;2.70;;
51248;SDS011;39642;47.556;18.728;2023-03-21T15:33:48;11.23;;;2.87;;
51248;SDS011;39642;47.556;18.728;2023-03-21T15:36:26;14.40;;;2.83;;
51248;SDS011;39642;47.556;18.728;2023-03-21T15:38:53;20.83;;;2.65;;
51248;SDS011;39642;47.556;18.728;2023-03-21T15:43:46;17.05;;;3.17;;
51248;SDS011;39642;47.556;18.728;2023-03-21T15:46:30;12.15;;;2.90;;
51248;SDS011;39642;47.556;18.728;2023-03-21T15:49:33;19.70;;;2.83;;
51248;SDS011;39642;47.556;18.728;2023-03-21T15:54:33;20.00;;;2.78;;
51248;SDS011;39642;47.556;18.728;2023-03-21T15:57:18;12.90;;;2.40;;
51248;SDS011;39642;47.556;18.728;2023-03-21T15:59:47;12.68;;;2.80;;
51248;SDS011;39642;47.556;18.728;2023-03-21T16:02:18;11.75;;;2.53;;
51248;SDS011;39642;47.556;18.728;2023-03-21T16:04:53;11.15;;;2.50;;
51248;SDS011;39642;47.556;18.728;2023-03-21T16:07:43;13.67;;;2.60;;
51248;SDS011;39642;47.556;18.728;2023-03-21T16:10:16;13.55;;;2.70;;
51248;SDS011;39642;47.556;18.728;2023-03-21T16:12:52;10.57;;;2.42;;
51248;SDS011;39642;47.556;18.728;2023-03-21T16:15:18;9.68;;;2.50;;